Lurgan, Pennsylvania
Current Conditions -  °F | °C
As of 11:00 AM on Wednesday 26 Nov 2014 (Local Time) from KRYT Reporting Station
Moderate Snow Moderate Snow  
Wind Chill: 34°   Ceiling: 600
Heat Index: 34°   Visibility: 0.5mi
Dew Point: 32°   Wind: 0mph
Humidity: 93%   Direction: NA
Pressure: 30.05"   Gusts: NA
Location:  40.09°N, 77.63°W
Report Text: KRYT 261600Z AUTO 00000KT 1/2SM SN FG OVC006 01/00 A3005 RMK AO2 P0001 $
Loading
Personal Weather Stations






























Interactive Weather Map New forecast layout! Learn more

10-Day Weather Forecast

Advertisements
Track Severe Weather on mobile